sensor_id;sensor_type;location;lat;lon;timestamp;noise_LAeq;noise_LA_min;noise_LA_max;noise_LA01;noise_LA95
52872;Laerm;40124;52.198;9.902;2023-07-31T00:02:13;55.53;35.04;76.57;;
52872;Laerm;40124;52.198;9.902;2023-07-31T00:04:38;40.79;35.04;47.96;;
52872;Laerm;40124;52.198;9.902;2023-07-31T00:07:03;58.68;35.04;76.82;;
52872;Laerm;40124;52.198;9.902;2023-07-31T00:09:31;40.47;32.35;49.81;;
52872;Laerm;40124;52.198;9.902;2023-07-31T00:11:56;39.78;33.44;46.66;;
52872;Laerm;40124;52.198;9.902;2023-07-31T00:14:21;55.35;32.35;75.19;;
52872;Laerm;40124;52.198;9.902;2023-07-31T00:16:46;39.69;32.93;46.23;;
52872;Laerm;40124;52.198;9.902;2023-07-31T00:19:11;57.57;33.44;77.63;;
52872;Laerm;40124;52.198;9.902;2023-07-31T00:21:37;39.63;32.35;46.38;;
52872;Laerm;40124;52.198;9.902;2023-07-31T00:24:02;58.64;34.69;78.31;;
52872;Laerm;40124;52.198;9.902;2023-07-31T00:26:27;43.58;36.45;54.36;;
52872;Laerm;40124;52.198;9.902;2023-07-31T00:28:52;40.25;33.44;46.43;;
52872;Laerm;40124;52.198;9.902;2023-07-31T00:31:17;39.94;33.44;46.58;;
52872;Laerm;40124;52.198;9.902;2023-07-31T00:33:42;60.57;32.93;82.90;;
52872;Laerm;40124;52.198;9.902;2023-07-31T00:36:07;59.41;33.44;80.44;;
52872;Laerm;40124;52.198;9.902;2023-07-31T00:38:33;39.67;32.35;46.20;;
52872;Laerm;40124;52.198;9.902;2023-07-31T00:40:58;39.71;32.35;46.45;;
52872;Laerm;40124;52.198;9.902;2023-07-31T00:43:24;39.72;32.35;46.55;;
52872;Laerm;40124;52.198;9.902;2023-07-31T00:45:49;39.81;33.44;46.43;;
52872;Laerm;40124;52.198;9.902;2023-07-31T00:48:14;58.74;34.31;79.33;;
52872;Laerm;40124;52.198;9.902;2023-07-31T00:50:39;40.19;34.69;46.59;;
52872;Laerm;40124;52.198;9.902;2023-07-31T00:53:05;67.49;35.36;87.85;;
52872;Laerm;40124;52.198;9.902;2023-07-31T00:55:30;40.06;34.69;46.78;;
52872;Laerm;40124;52.198;9.902;2023-07-31T00:57:56;40.36;36.20;46.73;;
52872;Laerm;40124;52.198;9.902;2023-07-31T01:00:21;44.64;36.98;57.79;;
52872;Laerm;40124;52.198;9.902;2023-07-31T01:02:46;40.93;34.69;46.80;;
52872;Laerm;40124;52.198;9.902;2023-07-31T01:05:12;40.34;35.36;46.80;;
52872;Laerm;40124;52.198;9.902;2023-07-31T01:07:51;40.97;36.69;46.69;;
52872;Laerm;40124;52.198;9.902;2023-07-31T01:10:21;40.34;36.20;47.46;;
52872;Laerm;40124;52.198;9.902;2023-07-31T01:12:47;41.10;37.32;47.55;;
52872;Laerm;40124;52.198;9.902;2023-07-31T01:15:12;41.06;37.32;46.97;;
52872;Laerm;40124;52.198;9.902;2023-07-31T01:17:40;40.88;37.12;46.64;;
52872;Laerm;40124;52.198;9.902;2023-07-31T01:20:07;60.79;37.12;80.34;;
52872;Laerm;40124;52.198;9.902;2023-07-31T01:25:41;60.68;37.70;81.52;;
52872;Laerm;40124;52.198;9.902;2023-07-31T01:28:08;40.87;37.12;46.84;;
52872;Laerm;40124;52.198;9.902;2023-07-31T01:30:37;69.33;37.52;89.26;;
52872;Laerm;40124;52.198;9.902;2023-07-31T01:33:03;41.69;37.12;47.61;;
52872;Laerm;40124;52.198;9.902;2023-07-31T01:35:33;40.90;36.91;46.62;;
52872;Laerm;40124;52.198;9.902;2023-07-31T01:37:58;41.51;37.70;46.57;;
52872;Laerm;40124;52.198;9.902;2023-07-31T01:40:24;40.72;36.91;46.82;;
52872;Laerm;40124;52.198;9.902;2023-07-31T01:42:49;41.10;37.32;46.64;;
52872;Laerm;40124;52.198;9.902;2023-07-31T01:45:14;59.57;36.20;81.58;;
52872;Laerm;40124;52.198;9.902;2023-07-31T01:47:39;45.16;36.69;57.87;;
52872;Laerm;40124;52.198;9.902;2023-07-31T01:50:04;40.45;36.69;46.30;;
52872;Laerm;40124;52.198;9.902;2023-07-31T01:52:30;58.70;37.12;79.14;;
52872;Laerm;40124;52.198;9.902;2023-07-31T01:54:55;59.93;37.70;80.61;;
52872;Laerm;40124;52.198;9.902;2023-07-31T01:57:20;41.72;37.70;46.40;;
52872;Laerm;40124;52.198;9.902;2023-07-31T01:59:45;41.79;37.70;51.24;;
52872;Laerm;40124;52.198;9.902;2023-07-31T02:02:10;58.81;38.52;78.80;;
52872;Laerm;40124;52.198;9.902;2023-07-31T02:04:35;69.19;37.70;87.11;;
52872;Laerm;40124;52.198;9.902;2023-07-31T02:07:01;42.47;37.12;51.31;;
52872;Laerm;40124;52.198;9.902;2023-07-31T02:09:26;66.13;39.70;85.44;;
52872;Laerm;40124;52.198;9.902;2023-07-31T02:11:51;52.02;35.66;72.25;;
52872;Laerm;40124;52.198;9.902;2023-07-31T02:14:16;40.32;36.20;46.15;;
52872;Laerm;40124;52.198;9.902;2023-07-31T02:16:41;40.18;35.04;45.94;;
52872;Laerm;40124;52.198;9.902;2023-07-31T02:19:07;40.83;35.04;54.60;;
52872;Laerm;40124;52.198;9.902;2023-07-31T02:21:32;71.78;36.91;93.21;;
52872;Laerm;40124;52.198;9.902;2023-07-31T02:23:58;56.41;37.32;75.98;;
52872;Laerm;40124;52.198;9.902;2023-07-31T02:26:23;61.78;36.45;80.12;;
52872;Laerm;40124;52.198;9.902;2023-07-31T02:28:48;41.25;35.94;49.19;;
52872;Laerm;40124;52.198;9.902;2023-07-31T02:31:13;65.47;37.12;86.81;;
52872;Laerm;40124;52.198;9.902;2023-07-31T02:33:38;63.06;36.91;78.81;;
52872;Laerm;40124;52.198;9.902;2023-07-31T02:36:03;47.81;38.32;59.03;;
52872;Laerm;40124;52.198;9.902;2023-07-31T02:38:29;59.15;36.91;79.09;;
52872;Laerm;40124;52.198;9.902;2023-07-31T02:40:54;64.58;36.69;82.31;;
52872;Laerm;40124;52.198;9.902;2023-07-31T02:43:19;60.73;36.45;79.37;;
52872;Laerm;40124;52.198;9.902;2023-07-31T02:45:44;59.99;35.66;79.33;;
52872;Laerm;40124;52.198;9.902;2023-07-31T02:48:09;59.65;37.70;79.89;;
52872;Laerm;40124;52.198;9.902;2023-07-31T02:50:34;61.13;37.88;81.02;;
52872;Laerm;40124;52.198;9.902;2023-07-31T02:53:00;58.63;38.05;77.66;;
52872;Laerm;40124;52.198;9.902;2023-07-31T02:55:25;64.77;37.32;82.33;;
52872;Laerm;40124;52.198;9.902;2023-07-31T02:57:50;46.93;36.34;58.90;;
52872;Laerm;40124;52.198;9.902;2023-07-31T03:00:17;59.03;36.69;79.45;;
52872;Laerm;40124;52.198;9.902;2023-07-31T03:02:42;59.18;36.69;79.87;;
52872;Laerm;40124;52.198;9.902;2023-07-31T03:05:07;62.18;38.21;78.51;;
52872;Laerm;40124;52.198;9.902;2023-07-31T03:07:32;63.03;38.67;79.37;;
52872;Laerm;40124;52.198;9.902;2023-07-31T03:09:58;67.93;39.21;83.63;;
52872;Laerm;40124;52.198;9.902;2023-07-31T03:12:23;65.21;38.81;82.36;;
52872;Laerm;40124;52.198;9.902;2023-07-31T03:14:48;69.72;42.41;86.27;;
52872;Laerm;40124;52.198;9.902;2023-07-31T03:17:13;70.07;42.35;88.90;;
52872;Laerm;40124;52.198;9.902;2023-07-31T03:19:38;68.42;43.94;82.72;;
52872;Laerm;40124;52.198;9.902;2023-07-31T03:22:03;67.49;41.38;80.95;;
52872;Laerm;40124;52.198;9.902;2023-07-31T03:24:29;70.37;40.53;85.96;;
52872;Laerm;40124;52.198;9.902;2023-07-31T03:26:54;65.94;39.81;83.12;;
52872;Laerm;40124;52.198;9.902;2023-07-31T03:29:19;71.92;43.86;85.37;;
52872;Laerm;40124;52.198;9.902;2023-07-31T03:31:44;70.56;42.98;84.48;;
52872;Laerm;40124;52.198;9.902;2023-07-31T03:34:09;66.40;40.80;81.27;;
52872;Laerm;40124;52.198;9.902;2023-07-31T03:36:35;71.96;48.36;85.18;;
52872;Laerm;40124;52.198;9.902;2023-07-31T03:39:00;65.10;42.76;80.69;;
52872;Laerm;40124;52.198;9.902;2023-07-31T03:41:25;70.60;47.54;82.79;;
52872;Laerm;40124;52.198;9.902;2023-07-31T03:43:51;68.25;43.94;81.86;;
52872;Laerm;40124;52.198;9.902;2023-07-31T03:46:17;68.65;43.28;81.59;;
52872;Laerm;40124;52.198;9.902;2023-07-31T03:48:42;69.84;46.50;83.02;;
52872;Laerm;40124;52.198;9.902;2023-07-31T03:51:07;71.28;46.23;88.01;;
52872;Laerm;40124;52.198;9.902;2023-07-31T03:53:32;67.00;45.66;84.48;;
52872;Laerm;40124;52.198;9.902;2023-07-31T03:55:57;72.46;50.04;89.83;;
52872;Laerm;40124;52.198;9.902;2023-07-31T03:58:22;67.78;50.20;81.91;;
52872;Laerm;40124;52.198;9.902;2023-07-31T04:00:48;71.44;49.49;92.12;;
52872;Laerm;40124;52.198;9.902;2023-07-31T04:03:13;71.08;48.66;84.05;;
52872;Laerm;40124;52.198;9.902;2023-07-31T04:05:38;67.63;49.46;81.57;;
52872;Laerm;40124;52.198;9.902;2023-07-31T04:08:04;72.73;49.25;90.01;;
52872;Laerm;40124;52.198;9.902;2023-07-31T04:10:29;72.84;50.79;87.82;;
52872;Laerm;40124;52.198;9.902;2023-07-31T04:12:56;69.36;43.68;83.15;;
52872;Laerm;40124;52.198;9.902;2023-07-31T04:15:21;70.94;45.91;84.44;;
52872;Laerm;40124;52.198;9.902;2023-07-31T04:17:46;71.57;41.61;86.80;;
52872;Laerm;40124;52.198;9.902;2023-07-31T04:20:11;70.41;46.20;84.06;;
52872;Laerm;40124;52.198;9.902;2023-07-31T04:22:36;72.13;41.38;83.06;;
52872;Laerm;40124;52.198;9.902;2023-07-31T04:25:02;71.18;41.30;89.98;;
52872;Laerm;40124;52.198;9.902;2023-07-31T04:27:27;72.65;48.29;84.51;;
52872;Laerm;40124;52.198;9.902;2023-07-31T04:29:52;73.35;47.86;87.80;;
52872;Laerm;40124;52.198;9.902;2023-07-31T04:32:17;74.26;49.03;89.79;;
52872;Laerm;40124;52.198;9.902;2023-07-31T04:34:42;74.30;46.45;88.06;;
52872;Laerm;40124;52.198;9.902;2023-07-31T04:37:08;71.21;47.02;82.24;;
52872;Laerm;40124;52.198;9.902;2023-07-31T04:39:33;74.56;43.94;90.18;;
52872;Laerm;40124;52.198;9.902;2023-07-31T04:41:58;73.19;53.89;83.81;;
52872;Laerm;40124;52.198;9.902;2023-07-31T04:44:23;71.91;47.96;82.00;;
52872;Laerm;40124;52.198;9.902;2023-07-31T04:46:49;70.88;46.13;84.29;;
52872;Laerm;40124;52.198;9.902;2023-07-31T04:49:14;74.07;43.72;87.88;;
52872;Laerm;40124;52.198;9.902;2023-07-31T04:51:39;71.08;45.69;83.30;;
52872;Laerm;40124;52.198;9.902;2023-07-31T04:54:04;72.31;51.60;86.30;;
52872;Laerm;40124;52.198;9.902;2023-07-31T04:56:29;72.68;44.47;89.16;;
52872;Laerm;40124;52.198;9.902;2023-07-31T04:58:54;73.57;48.43;88.39;;
52872;Laerm;40124;52.198;9.902;2023-07-31T05:01:20;69.97;44.07;82.72;;
52872;Laerm;40124;52.198;9.902;2023-07-31T05:03:45;70.60;47.36;82.20;;
52872;Laerm;40124;52.198;9.902;2023-07-31T05:06:10;73.87;45.23;87.06;;
52872;Laerm;40124;52.198;9.902;2023-07-31T05:08:35;70.20;45.63;81.20;;
52872;Laerm;40124;52.198;9.902;2023-07-31T05:11:00;70.22;42.29;83.93;;
52872;Laerm;40124;52.198;9.902;2023-07-31T05:13:25;73.78;46.66;88.51;;
52872;Laerm;40124;52.198;9.902;2023-07-31T05:15:51;70.60;47.98;85.68;;
52872;Laerm;40124;52.198;9.902;2023-07-31T05:18:16;69.78;47.14;82.20;;
52872;Laerm;40124;52.198;9.902;2023-07-31T05:20:41;70.88;45.99;81.69;;
52872;Laerm;40124;52.198;9.902;2023-07-31T05:23:06;72.50;50.98;86.44;;
52872;Laerm;40124;52.198;9.902;2023-07-31T05:25:31;72.09;52.05;81.77;;
52872;Laerm;40124;52.198;9.902;2023-07-31T05:27:57;71.04;45.39;83.10;;
52872;Laerm;40124;52.198;9.902;2023-07-31T05:30:22;74.97;52.43;89.73;;
52872;Laerm;40124;52.198;9.902;2023-07-31T05:32:47;70.20;46.25;82.83;;
52872;Laerm;40124;52.198;9.902;2023-07-31T05:35:12;74.16;50.99;91.86;;
52872;Laerm;40124;52.198;9.902;2023-07-31T05:37:37;76.66;47.44;93.91;;
52872;Laerm;40124;52.198;9.902;2023-07-31T05:40:02;70.87;42.29;81.54;;
52872;Laerm;40124;52.198;9.902;2023-07-31T05:42:28;73.00;42.03;89.37;;
52872;Laerm;40124;52.198;9.902;2023-07-31T05:44:53;74.13;44.03;89.64;;
52872;Laerm;40124;52.198;9.902;2023-07-31T05:47:18;73.09;45.63;89.09;;
52872;Laerm;40124;52.198;9.902;2023-07-31T05:49:43;72.90;44.45;89.50;;
52872;Laerm;40124;52.198;9.902;2023-07-31T05:52:09;72.52;42.98;86.39;;
52872;Laerm;40124;52.198;9.902;2023-07-31T05:54:34;68.01;43.29;80.46;;
52872;Laerm;40124;52.198;9.902;2023-07-31T05:56:59;71.06;44.80;81.49;;
52872;Laerm;40124;52.198;9.902;2023-07-31T05:59:24;71.08;43.14;87.44;;
52872;Laerm;40124;52.198;9.902;2023-07-31T06:01:49;69.88;46.84;83.21;;
52872;Laerm;40124;52.198;9.902;2023-07-31T06:04:15;68.06;42.82;82.88;;
52872;Laerm;40124;52.198;9.902;2023-07-31T06:06:40;66.26;41.61;79.57;;
52872;Laerm;40124;52.198;9.902;2023-07-31T06:09:05;73.13;42.47;91.41;;
52872;Laerm;40124;52.198;9.902;2023-07-31T06:11:30;68.95;46.64;81.75;;
52872;Laerm;40124;52.198;9.902;2023-07-31T06:13:56;68.71;41.68;81.10;;
52872;Laerm;40124;52.198;9.902;2023-07-31T06:16:21;70.53;48.73;88.20;;
52872;Laerm;40124;52.198;9.902;2023-07-31T06:18:46;69.68;45.17;85.42;;
52872;Laerm;40124;52.198;9.902;2023-07-31T06:21:11;71.91;43.29;87.37;;
52872;Laerm;40124;52.198;9.902;2023-07-31T06:23:37;66.24;42.41;79.38;;
52872;Laerm;40124;52.198;9.902;2023-07-31T06:26:02;68.81;43.81;80.40;;
52872;Laerm;40124;52.198;9.902;2023-07-31T06:28:28;68.56;43.58;83.05;;
52872;Laerm;40124;52.198;9.902;2023-07-31T06:30:54;69.39;44.19;86.76;;
52872;Laerm;40124;52.198;9.902;2023-07-31T06:33:19;71.78;46.20;84.46;;
52872;Laerm;40124;52.198;9.902;2023-07-31T06:35:44;70.62;46.62;80.78;;
52872;Laerm;40124;52.198;9.902;2023-07-31T06:38:10;70.67;44.27;83.26;;
52872;Laerm;40124;52.198;9.902;2023-07-31T06:40:35;73.52;45.94;88.43;;
52872;Laerm;40124;52.198;9.902;2023-07-31T06:43:01;70.76;45.97;84.50;;
52872;Laerm;40124;52.198;9.902;2023-07-31T06:45:32;71.40;47.70;88.85;;
52872;Laerm;40124;52.198;9.902;2023-07-31T06:47:57;71.14;44.43;83.43;;
52872;Laerm;40124;52.198;9.902;2023-07-31T06:50:26;69.73;45.14;82.61;;
52872;Laerm;40124;52.198;9.902;2023-07-31T06:52:51;73.28;50.10;88.38;;
52872;Laerm;40124;52.198;9.902;2023-07-31T06:55:18;71.23;54.12;89.12;;
52872;Laerm;40124;52.198;9.902;2023-07-31T06:57:43;73.99;48.57;92.35;;
52872;Laerm;40124;52.198;9.902;2023-07-31T07:00:09;69.86;47.02;81.37;;
52872;Laerm;40124;52.198;9.902;2023-07-31T07:02:34;70.18;46.15;86.15;;
52872;Laerm;40124;52.198;9.902;2023-07-31T07:04:59;70.29;45.14;85.44;;
52872;Laerm;40124;52.198;9.902;2023-07-31T07:07:24;69.42;45.63;83.75;;
52872;Laerm;40124;52.198;9.902;2023-07-31T07:09:50;66.59;43.77;80.83;;
52872;Laerm;40124;52.198;9.902;2023-07-31T07:12:15;67.29;42.47;81.61;;
52872;Laerm;40124;52.198;9.902;2023-07-31T07:14:40;70.46;45.97;87.04;;
52872;Laerm;40124;52.198;9.902;2023-07-31T07:17:05;69.93;48.00;83.31;;
52872;Laerm;40124;52.198;9.902;2023-07-31T07:19:30;69.57;47.65;81.72;;
52872;Laerm;40124;52.198;9.902;2023-07-31T07:21:56;74.19;45.36;87.52;;
52872;Laerm;40124;52.198;9.902;2023-07-31T07:24:21;74.94;44.34;89.93;;
52872;Laerm;40124;52.198;9.902;2023-07-31T07:26:46;70.59;44.47;86.52;;
52872;Laerm;40124;52.198;9.902;2023-07-31T07:29:11;68.01;42.76;81.88;;
52872;Laerm;40124;52.198;9.902;2023-07-31T07:31:36;69.66;42.82;84.55;;
52872;Laerm;40124;52.198;9.902;2023-07-31T07:34:01;69.32;43.39;84.63;;
52872;Laerm;40124;52.198;9.902;2023-07-31T07:36:27;68.24;45.14;80.48;;
52872;Laerm;40124;52.198;9.902;2023-07-31T07:38:53;73.61;45.07;89.88;;
52872;Laerm;40124;52.198;9.902;2023-07-31T07:41:18;68.48;52.45;80.23;;
52872;Laerm;40124;52.198;9.902;2023-07-31T07:43:43;69.73;43.14;84.77;;
52872;Laerm;40124;52.198;9.902;2023-07-31T07:46:08;66.93;41.30;79.82;;
52872;Laerm;40124;52.198;9.902;2023-07-31T07:48:33;69.99;45.39;80.60;;
52872;Laerm;40124;52.198;9.902;2023-07-31T07:50:58;70.25;45.27;88.39;;
52872;Laerm;40124;52.198;9.902;2023-07-31T07:53:23;71.51;50.33;84.92;;
52872;Laerm;40124;52.198;9.902;2023-07-31T07:55:49;73.11;46.40;88.00;;
52872;Laerm;40124;52.198;9.902;2023-07-31T07:58:14;65.75;44.15;79.54;;
52872;Laerm;40124;52.198;9.902;2023-07-31T08:00:39;70.82;44.80;84.23;;
52872;Laerm;40124;52.198;9.902;2023-07-31T08:03:04;67.26;44.73;79.77;;
52872;Laerm;40124;52.198;9.902;2023-07-31T08:05:29;73.55;42.09;89.27;;
52872;Laerm;40124;52.198;9.902;2023-07-31T08:07:59;69.82;42.65;83.30;;
52872;Laerm;40124;52.198;9.902;2023-07-31T08:10:24;71.82;43.81;87.79;;
52872;Laerm;40124;52.198;9.902;2023-07-31T08:12:49;75.91;49.39;93.29;;
52872;Laerm;40124;52.198;9.902;2023-07-31T08:15:14;73.16;45.51;88.47;;
52872;Laerm;40124;52.198;9.902;2023-07-31T08:17:39;71.54;47.68;88.58;;
52872;Laerm;40124;52.198;9.902;2023-07-31T08:20:05;70.68;44.62;87.20;;
52872;Laerm;40124;52.198;9.902;2023-07-31T08:22:31;68.18;41.38;83.55;;
52872;Laerm;40124;52.198;9.902;2023-07-31T08:24:56;71.71;41.30;87.73;;
52872;Laerm;40124;52.198;9.902;2023-07-31T08:27:21;69.61;50.53;82.30;;
52872;Laerm;40124;52.198;9.902;2023-07-31T08:29:46;71.24;47.57;83.05;;
52872;Laerm;40124;52.198;9.902;2023-07-31T08:32:12;70.91;44.76;84.93;;
52872;Laerm;40124;52.198;9.902;2023-07-31T08:34:37;70.55;44.90;87.17;;
52872;Laerm;40124;52.198;9.902;2023-07-31T08:37:02;71.77;47.55;86.16;;
52872;Laerm;40124;52.198;9.902;2023-07-31T08:39:27;69.73;48.60;83.06;;
52872;Laerm;40124;52.198;9.902;2023-07-31T08:41:57;70.02;43.86;83.47;;
52872;Laerm;40124;52.198;9.902;2023-07-31T08:44:22;70.40;42.98;87.65;;
52872;Laerm;40124;52.198;9.902;2023-07-31T08:46:49;68.29;44.11;80.27;;
52872;Laerm;40124;52.198;9.902;2023-07-31T08:49:14;70.92;46.95;86.46;;
52872;Laerm;40124;52.198;9.902;2023-07-31T08:51:39;72.61;45.60;85.87;;
52872;Laerm;40124;52.198;9.902;2023-07-31T08:54:05;70.20;46.59;84.48;;
52872;Laerm;40124;52.198;9.902;2023-07-31T08:56:34;70.00;48.26;83.92;;
52872;Laerm;40124;52.198;9.902;2023-07-31T08:59:01;72.42;50.36;89.20;;
52872;Laerm;40124;52.198;9.902;2023-07-31T09:01:29;66.97;43.94;80.16;;
52872;Laerm;40124;52.198;9.902;2023-07-31T09:03:54;70.06;50.60;85.44;;
52872;Laerm;40124;52.198;9.902;2023-07-31T09:06:20;71.60;52.25;82.33;;
52872;Laerm;40124;52.198;9.902;2023-07-31T09:08:46;70.26;46.84;81.00;;
52872;Laerm;40124;52.198;9.902;2023-07-31T09:11:11;73.66;49.73;89.42;;
52872;Laerm;40124;52.198;9.902;2023-07-31T09:13:37;70.37;47.42;83.68;;
52872;Laerm;40124;52.198;9.902;2023-07-31T09:16:05;72.00;44.87;82.16;;
52872;Laerm;40124;52.198;9.902;2023-07-31T09:18:30;71.75;46.93;84.53;;
52872;Laerm;40124;52.198;9.902;2023-07-31T09:23:26;71.63;43.72;89.63;;
52872;Laerm;40124;52.198;9.902;2023-07-31T09:26:04;68.39;40.89;81.56;;
52872;Laerm;40124;52.198;9.902;2023-07-31T09:28:30;72.99;43.68;87.00;;
52872;Laerm;40124;52.198;9.902;2023-07-31T09:30:56;69.49;45.27;79.85;;
52872;Laerm;40124;52.198;9.902;2023-07-31T09:33:21;72.05;44.80;84.18;;
52872;Laerm;40124;52.198;9.902;2023-07-31T09:35:46;72.37;47.50;89.83;;
52872;Laerm;40124;52.198;9.902;2023-07-31T09:38:13;69.77;45.54;80.52;;
52872;Laerm;40124;52.198;9.902;2023-07-31T09:40:40;72.69;48.88;88.38;;
52872;Laerm;40124;52.198;9.902;2023-07-31T09:43:06;69.53;44.43;84.91;;
52872;Laerm;40124;52.198;9.902;2023-07-31T09:45:34;68.03;41.46;81.43;;
52872;Laerm;40124;52.198;9.902;2023-07-31T09:47:59;71.65;45.86;88.41;;
52872;Laerm;40124;52.198;9.902;2023-07-31T09:50:25;70.60;47.46;84.43;;
52872;Laerm;40124;52.198;9.902;2023-07-31T09:52:50;73.51;52.00;90.05;;
52872;Laerm;40124;52.198;9.902;2023-07-31T09:55:16;69.78;43.29;81.45;;
52872;Laerm;40124;52.198;9.902;2023-07-31T09:57:42;66.96;46.45;81.17;;
52872;Laerm;40124;52.198;9.902;2023-07-31T10:00:07;70.66;44.80;84.90;;
52872;Laerm;40124;52.198;9.902;2023-07-31T10:02:34;69.58;50.76;81.09;;
52872;Laerm;40124;52.198;9.902;2023-07-31T10:05:01;70.24;43.34;84.87;;
52872;Laerm;40124;52.198;9.902;2023-07-31T10:07:27;70.61;50.72;88.38;;
52872;Laerm;40124;52.198;9.902;2023-07-31T10:09:54;73.47;49.16;88.59;;
52872;Laerm;40124;52.198;9.902;2023-07-31T10:12:22;67.85;43.77;81.97;;
52872;Laerm;40124;52.198;9.902;2023-07-31T10:14:50;69.87;49.35;83.49;;
52872;Laerm;40124;52.198;9.902;2023-07-31T10:17:16;71.58;48.95;85.25;;
52872;Laerm;40124;52.198;9.902;2023-07-31T10:19:43;71.19;47.67;86.87;;
52872;Laerm;40124;52.198;9.902;2023-07-31T10:22:08;70.50;45.98;89.08;;
52872;Laerm;40124;52.198;9.902;2023-07-31T10:24:34;72.74;42.98;86.25;;
52872;Laerm;40124;52.198;9.902;2023-07-31T10:27:00;70.18;52.27;83.43;;
52872;Laerm;40124;52.198;9.902;2023-07-31T10:29:26;75.51;48.46;98.04;;
52872;Laerm;40124;52.198;9.902;2023-07-31T10:31:52;68.10;46.92;79.87;;
52872;Laerm;40124;52.198;9.902;2023-07-31T10:34:18;72.28;43.09;88.80;;
52872;Laerm;40124;52.198;9.902;2023-07-31T10:36:43;70.04;45.75;82.78;;
52872;Laerm;40124;52.198;9.902;2023-07-31T10:41:52;68.87;44.15;83.86;;
52872;Laerm;40124;52.198;9.902;2023-07-31T10:44:17;67.98;45.11;79.56;;
52872;Laerm;40124;52.198;9.902;2023-07-31T10:46:42;71.18;46.43;86.42;;
52872;Laerm;40124;52.198;9.902;2023-07-31T10:49:10;71.39;44.15;85.46;;
52872;Laerm;40124;52.198;9.902;2023-07-31T10:51:45;70.47;49.49;83.02;;
52872;Laerm;40124;52.198;9.902;2023-07-31T10:54:13;69.45;42.88;89.51;;
52872;Laerm;40124;52.198;9.902;2023-07-31T10:56:39;71.36;46.18;85.90;;
52872;Laerm;40124;52.198;9.902;2023-07-31T10:59:04;70.59;43.14;87.87;;
52872;Laerm;40124;52.198;9.902;2023-07-31T11:01:50;71.10;49.73;85.07;;
52872;Laerm;40124;52.198;9.902;2023-07-31T11:04:15;72.71;42.65;92.65;;
52872;Laerm;40124;52.198;9.902;2023-07-31T11:06:55;69.34;44.76;83.38;;
52872;Laerm;40124;52.198;9.902;2023-07-31T11:09:20;70.06;43.39;85.26;;
52872;Laerm;40124;52.198;9.902;2023-07-31T11:11:45;69.47;45.39;83.69;;
52872;Laerm;40124;52.198;9.902;2023-07-31T11:14:11;70.01;49.67;82.00;;
52872;Laerm;40124;52.198;9.902;2023-07-31T11:16:36;69.61;44.73;83.68;;
52872;Laerm;40124;52.198;9.902;2023-07-31T11:19:01;70.02;43.99;86.10;;
52872;Laerm;40124;52.198;9.902;2023-07-31T11:21:26;68.98;41.89;87.19;;
52872;Laerm;40124;52.198;9.902;2023-07-31T11:23:55;69.74;43.49;82.21;;
52872;Laerm;40124;52.198;9.902;2023-07-31T11:26:21;71.50;43.44;91.01;;
52872;Laerm;40124;52.198;9.902;2023-07-31T11:28:48;70.82;46.18;86.62;;
52872;Laerm;40124;52.198;9.902;2023-07-31T11:31:14;72.22;44.15;87.82;;
52872;Laerm;40124;52.198;9.902;2023-07-31T11:33:39;71.63;43.49;87.19;;
52872;Laerm;40124;52.198;9.902;2023-07-31T11:36:04;72.33;43.94;90.60;;
52872;Laerm;40124;52.198;9.902;2023-07-31T11:38:30;72.08;42.98;88.09;;
52872;Laerm;40124;52.198;9.902;2023-07-31T11:40:56;70.26;46.40;84.17;;
52872;Laerm;40124;52.198;9.902;2023-07-31T11:43:22;70.15;45.14;83.74;;
52872;Laerm;40124;52.198;9.902;2023-07-31T11:45:48;71.86;44.54;90.06;;
52872;Laerm;40124;52.198;9.902;2023-07-31T11:50:45;71.17;47.00;85.43;;
52872;Laerm;40124;52.198;9.902;2023-07-31T11:53:11;66.68;42.22;81.09;;
52872;Laerm;40124;52.198;9.902;2023-07-31T11:55:37;71.09;46.15;89.27;;
52872;Laerm;40124;52.198;9.902;2023-07-31T11:58:02;71.89;46.80;90.37;;
52872;Laerm;40124;52.198;9.902;2023-07-31T12:00:28;69.44;44.39;79.82;;
52872;Laerm;40124;52.198;9.902;2023-07-31T12:02:53;70.92;43.24;87.46;;
52872;Laerm;40124;52.198;9.902;2023-07-31T12:05:19;71.88;53.14;84.00;;
52872;Laerm;40124;52.198;9.902;2023-07-31T12:07:45;69.46;44.51;82.15;;
52872;Laerm;40124;52.198;9.902;2023-07-31T12:10:10;69.40;44.51;83.96;;
52872;Laerm;40124;52.198;9.902;2023-07-31T12:12:36;71.06;45.17;84.81;;
52872;Laerm;40124;52.198;9.902;2023-07-31T12:15:01;71.28;50.48;88.23;;
52872;Laerm;40124;52.198;9.902;2023-07-31T12:17:26;71.54;46.10;83.50;;
52872;Laerm;40124;52.198;9.902;2023-07-31T12:19:51;68.27;43.09;81.43;;
52872;Laerm;40124;52.198;9.902;2023-07-31T12:22:16;69.07;43.81;81.01;;
52872;Laerm;40124;52.198;9.902;2023-07-31T12:24:42;68.67;47.90;79.90;;
52872;Laerm;40124;52.198;9.902;2023-07-31T12:27:13;74.36;50.48;88.73;;
52872;Laerm;40124;52.198;9.902;2023-07-31T12:29:38;68.20;44.58;79.95;;
52872;Laerm;40124;52.198;9.902;2023-07-31T12:32:04;74.34;45.97;87.24;;
52872;Laerm;40124;52.198;9.902;2023-07-31T12:34:30;68.68;42.65;80.14;;
52872;Laerm;40124;52.198;9.902;2023-07-31T12:36:56;71.80;46.43;86.36;;
52872;Laerm;40124;52.198;9.902;2023-07-31T12:39:21;72.38;47.06;84.80;;
52872;Laerm;40124;52.198;9.902;2023-07-31T12:41:46;70.26;48.61;84.21;;
52872;Laerm;40124;52.198;9.902;2023-07-31T12:44:11;74.09;52.38;88.83;;
52872;Laerm;40124;52.198;9.902;2023-07-31T12:46:36;70.99;43.77;85.34;;
52872;Laerm;40124;52.198;9.902;2023-07-31T12:49:02;72.40;47.88;87.14;;
52872;Laerm;40124;52.198;9.902;2023-07-31T12:51:27;71.59;55.24;80.79;;
52872;Laerm;40124;52.198;9.902;2023-07-31T12:53:52;71.60;44.69;89.66;;
52872;Laerm;40124;52.198;9.902;2023-07-31T12:56:17;75.60;43.09;92.52;;
52872;Laerm;40124;52.198;9.902;2023-07-31T12:58:43;71.51;53.26;88.67;;
52872;Laerm;40124;52.198;9.902;2023-07-31T13:01:08;69.85;53.11;81.23;;
52872;Laerm;40124;52.198;9.902;2023-07-31T13:03:33;71.22;48.62;86.90;;
52872;Laerm;40124;52.198;9.902;2023-07-31T13:05:58;69.43;46.48;84.71;;
52872;Laerm;40124;52.198;9.902;2023-07-31T13:08:23;70.37;47.88;85.17;;
52872;Laerm;40124;52.198;9.902;2023-07-31T13:10:49;70.17;43.86;81.79;;
52872;Laerm;40124;52.198;9.902;2023-07-31T13:13:14;71.05;49.43;80.75;;
52872;Laerm;40124;52.198;9.902;2023-07-31T13:15:39;70.13;47.06;80.57;;
52872;Laerm;40124;52.198;9.902;2023-07-31T13:18:04;70.40;42.29;83.42;;
52872;Laerm;40124;52.198;9.902;2023-07-31T13:20:29;69.22;44.76;81.14;;
52872;Laerm;40124;52.198;9.902;2023-07-31T13:22:55;68.74;45.14;79.16;;
52872;Laerm;40124;52.198;9.902;2023-07-31T13:25:20;72.91;42.71;87.51;;
52872;Laerm;40124;52.198;9.902;2023-07-31T13:27:45;69.08;44.97;81.84;;
52872;Laerm;40124;52.198;9.902;2023-07-31T13:30:10;72.35;49.67;88.05;;
52872;Laerm;40124;52.198;9.902;2023-07-31T13:32:35;72.22;49.55;84.31;;
52872;Laerm;40124;52.198;9.902;2023-07-31T13:35:03;70.51;48.91;82.31;;
52872;Laerm;40124;52.198;9.902;2023-07-31T13:37:29;76.40;47.16;99.35;;
52872;Laerm;40124;52.198;9.902;2023-07-31T13:39:54;71.07;52.46;81.65;;
52872;Laerm;40124;52.198;9.902;2023-07-31T13:42:19;71.35;47.08;82.08;;
52872;Laerm;40124;52.198;9.902;2023-07-31T13:44:44;70.21;49.16;83.34;;
52872;Laerm;40124;52.198;9.902;2023-07-31T13:47:09;71.77;47.28;86.72;;